Time;durP1;ratioP1;P1;durP2;ratioP2;P2;SDS_P1;SDS_P2;PMS_P1;PMS_P2;Temp;Humidity;BMP_temperature;BMP_pressure;BME280_temperature;BME280_humidity;BME280_pressure;Samples;Min_cycle;Max_cycle;Signal;HPM_P1;HPM_P2
2023/01/10 00:01:38;;;;;;;4.03;1.38;;;21.20;37.20;;;;;;5028414;28;20120;-56
2023/01/10 00:04:04;;;;;;;3.42;1.23;;;21.20;37.20;;;;;;5028730;28;20493;-56
2023/01/10 00:06:30;;;;;;;4.55;1.42;;;21.20;37.20;;;;;;5029872;28;20029;-53
2023/01/10 00:08:56;;;;;;;2.85;1.25;;;21.20;37.20;;;;;;5030108;28;20025;-57
2023/01/10 00:14:07;;;;;;;4.30;1.50;;;21.20;37.10;;;;;;5026671;28;20028;-55
2023/01/10 00:16:35;;;;;;;3.40;1.00;;;21.10;37.20;;;;;;5029322;28;20109;-55
2023/01/10 00:19:01;;;;;;;3.97;1.35;;;21.10;37.10;;;;;;5029946;28;20030;-56
2023/01/10 00:21:29;;;;;;;3.65;1.10;;;21.10;37.10;;;;;;5029754;28;20448;-56
2023/01/10 00:23:58;;;;;;;3.55;1.30;;;21.10;37.10;;;;;;5026502;28;20034;-56
2023/01/10 00:26:24;;;;;;;3.72;1.80;;;21.10;37.00;;;;;;5008732;28;20476;-53
2023/01/10 00:28:51;;;;;;;2.53;1.00;;;21.10;37.00;;;;;;5030921;28;20084;-53
2023/01/10 00:31:17;;;;;;;2.88;1.13;;;21.10;37.10;;;;;;5029393;28;20025;-53
2023/01/10 00:33:42;;;;;;;3.88;1.63;;;21.10;37.10;;;;;;5030223;28;20513;-55
2023/01/10 00:36:09;;;;;;;2.97;1.02;;;21.10;37.00;;;;;;5013529;28;20100;-56
2023/01/10 00:38:35;;;;;;;4.30;1.55;;;21.10;37.00;;;;;;5028224;28;20099;-55
2023/01/10 00:41:02;;;;;;;3.50;1.20;;;21.10;37.00;;;;;;5012739;28;20041;-54
2023/01/10 00:46:12;;;;;;;4.57;1.27;;;21.10;37.00;;;;;;5030820;28;20040;-56
2023/01/10 00:48:39;;;;;;;4.32;1.42;;;21.00;36.90;;;;;;5028743;28;20021;-55
2023/01/10 00:51:07;;;;;;;3.65;1.38;;;21.00;36.90;;;;;;5030123;28;20039;-54
2023/01/10 00:53:32;;;;;;;2.90;1.38;;;21.00;36.90;;;;;;5025389;28;20029;-53
2023/01/10 00:55:58;;;;;;;2.97;1.10;;;21.00;36.90;;;;;;5032663;28;20040;-57
2023/01/10 00:58:24;;;;;;;4.32;1.10;;;21.00;36.80;;;;;;5029493;28;20021;-52
2023/01/10 01:00:50;;;;;;;2.65;1.08;;;21.00;36.90;;;;;;5012920;28;20029;-52
2023/01/10 01:03:17;;;;;;;3.22;1.05;;;21.00;36.90;;;;;;5025677;28;20072;-49
2023/01/10 01:05:45;;;;;;;3.67;1.38;;;21.00;36.80;;;;;;5030351;28;20040;-52
2023/01/10 01:08:12;;;;;;;2.45;0.90;;;21.00;36.90;;;;;;5029080;28;20021;-52
2023/01/10 01:10:39;;;;;;;4.57;1.55;;;21.00;36.90;;;;;;5029945;28;20036;-54
2023/01/10 01:13:10;;;;;;;2.83;1.00;;;21.00;36.90;;;;;;5028983;28;20038;-54
2023/01/10 01:15:36;;;;;;;4.07;1.33;;;21.00;36.90;;;;;;5012658;28;20354;-55
2023/01/10 01:18:02;;;;;;;4.22;1.48;;;21.00;36.90;;;;;;5027912;28;20036;-56
2023/01/10 01:20:28;;;;;;;4.95;1.20;;;21.00;36.90;;;;;;5028161;28;20029;-57
2023/01/10 01:22:54;;;;;;;2.58;1.00;;;21.00;36.90;;;;;;5027684;28;20125;-55
2023/01/10 01:25:20;;;;;;;2.05;0.85;;;21.00;36.90;;;;;;5028735;28;20109;-54
2023/01/10 01:27:46;;;;;;;3.72;1.35;;;20.90;36.80;;;;;;5029876;28;20372;-57
2023/01/10 01:30:12;;;;;;;3.08;1.10;;;21.00;36.80;;;;;;5026112;28;20022;-52
2023/01/10 01:32:38;;;;;;;3.20;1.10;;;20.90;36.80;;;;;;5028768;28;20018;-53
2023/01/10 01:35:06;;;;;;;5.25;1.50;;;20.90;36.80;;;;;;5028286;28;20445;-55
2023/01/10 01:37:32;;;;;;;2.75;1.23;;;20.90;36.80;;;;;;5025835;28;20109;-57
2023/01/10 01:39:58;;;;;;;4.65;1.40;;;20.90;36.80;;;;;;5026618;28;20022;-55
2023/01/10 01:42:30;;;;;;;3.50;1.38;;;20.90;36.80;;;;;;5029893;28;20063;-55
2023/01/10 01:45:08;;;;;;;3.58;1.08;;;20.90;36.80;;;;;;5026989;28;20061;-57
2023/01/10 01:47:48;;;;;;;2.17;0.98;;;20.90;36.70;;;;;;5010461;28;20041;-56
2023/01/10 01:50:45;;;;;;;3.95;0.95;;;20.90;36.80;;;;;;5028907;28;20025;-56
2023/01/10 01:53:18;;;;;;;3.58;1.33;;;20.90;36.70;;;;;;5027796;28;20064;-55
2023/01/10 01:55:46;;;;;;;4.18;0.88;;;20.90;36.70;;;;;;5028235;28;20063;-55
2023/01/10 01:58:19;;;;;;;3.25;1.23;;;20.90;36.80;;;;;;5028144;28;20025;-55
2023/01/10 02:00:46;;;;;;;3.80;1.27;;;20.90;36.80;;;;;;5029062;28;20029;-55
2023/01/10 02:03:13;;;;;;;3.85;1.33;;;20.80;36.70;;;;;;5027482;28;20300;-56
2023/01/10 02:05:41;;;;;;;4.80;1.65;;;20.90;36.80;;;;;;5034512;28;20024;-53
2023/01/10 02:08:07;;;;;;;4.82;1.42;;;20.80;36.80;;;;;;5031431;28;20026;-49
2023/01/10 02:11:04;;;;;;;5.18;1.40;;;20.80;36.80;;;;;;5030695;28;20033;-50
2023/01/10 02:13:32;;;;;;;3.13;1.10;;;20.80;36.80;;;;;;5032071;28;20029;-51
2023/01/10 02:15:59;;;;;;;3.25;1.17;;;20.80;36.80;;;;;;5029800;28;20042;-56
2023/01/10 02:18:25;;;;;;;3.50;1.35;;;20.80;36.80;;;;;;5025491;28;20360;-54
2023/01/10 02:21:04;;;;;;;3.30;1.33;;;20.80;36.80;;;;;;5031558;28;20091;-53
2023/01/10 02:23:45;;;;;;;4.22;1.38;;;20.80;36.80;;;;;;5032310;28;20140;-55
2023/01/10 02:26:32;;;;;;;3.03;1.00;;;20.80;36.80;;;;;;5033108;28;20082;-54
2023/01/10 02:29:16;;;;;;;4.07;1.08;;;20.80;36.80;;;;;;5028807;28;20032;-57
2023/01/10 02:32:21;;;;;;;3.67;1.15;;;20.80;36.80;;;;;;5028564;28;20034;-55
2023/01/10 02:35:12;;;;;;;2.95;1.13;;;20.80;36.80;;;;;;5028413;28;20045;-53
2023/01/10 02:38:03;;;;;;;3.13;1.10;;;20.70;36.80;;;;;;5031554;28;20060;-56
2023/01/10 02:40:46;;;;;;;2.88;1.30;;;20.80;36.90;;;;;;5029041;28;20038;-57
2023/01/10 02:43:17;;;;;;;2.83;0.93;;;20.80;36.90;;;;;;5031368;28;20103;-55
2023/01/10 02:46:04;;;;;;;3.45;1.17;;;20.80;37.00;;;;;;5031873;28;20037;-55
2023/01/10 02:48:30;;;;;;;2.97;1.25;;;20.70;37.00;;;;;;5030308;28;20342;-57
2023/01/10 02:51:20;;;;;;;2.03;1.10;;;20.70;37.00;;;;;;5013281;28;20088;-56
2023/01/10 02:54:15;;;;;;;3.45;1.10;;;20.70;37.10;;;;;;5030440;28;20025;-54
2023/01/10 02:57:07;;;;;;;3.65;1.60;;;20.70;37.10;;;;;;5025826;28;20026;-56
2023/01/10 03:00:01;;;;;;;5.90;1.30;;;20.70;37.80;;;;;;5022313;28;20191;-54
2023/01/10 03:02:30;;;;;;;3.28;1.38;;;20.70;37.20;;;;;;5029008;28;20067;-54
2023/01/10 03:05:35;;;;;;;4.82;1.50;;;20.70;37.30;;;;;;5029418;28;20034;-57
2023/01/10 03:08:28;;;;;;;5.03;1.00;;;20.70;37.30;;;;;;5031617;28;20033;-51
2023/01/10 03:11:12;;;;;;;4.07;1.30;;;20.70;37.40;;;;;;5025212;28;20093;-52
2023/01/10 03:13:49;;;;;;;2.47;1.00;;;20.60;37.40;;;;;;5029176;28;20509;-56
2023/01/10 03:16:18;;;;;;;2.42;1.15;;;20.60;37.50;;;;;;5027231;28;20037;-52
2023/01/10 03:18:52;;;;;;;2.30;1.20;;;20.60;37.50;;;;;;5030184;28;20417;-53
2023/01/10 03:21:20;;;;;;;4.32;1.50;;;20.60;37.50;;;;;;5028650;28;20029;-55
2023/01/10 03:23:49;;;;;;;5.18;1.15;;;20.60;37.50;;;;;;5032159;28;20472;-56
2023/01/10 03:26:19;;;;;;;2.75;1.08;;;20.60;37.60;;;;;;5028110;28;20041;-55
2023/01/10 03:28:51;;;;;;;3.47;1.10;;;20.60;37.60;;;;;;5029671;28;20029;-52
2023/01/10 03:31:33;;;;;;;3.13;1.10;;;20.60;37.60;;;;;;5031853;28;20022;-54
2023/01/10 03:33:58;;;;;;;3.38;1.10;;;20.60;37.60;;;;;;5028025;28;20116;-55
2023/01/10 03:36:51;;;;;;;3.83;1.10;;;20.60;37.60;;;;;;5030209;28;20112;-56
2023/01/10 03:39:40;;;;;;;3.28;1.38;;;20.60;37.60;;;;;;5031818;28;20048;-50
2023/01/10 03:42:12;;;;;;;4.30;1.05;;;20.60;37.70;;;;;;5029530;28;20045;-56
2023/01/10 03:44:44;;;;;;;4.80;1.20;;;20.50;37.70;;;;;;5033543;28;20053;-56
2023/01/10 03:47:21;;;;;;;3.45;1.00;;;20.50;37.70;;;;;;5027517;28;20117;-53
2023/01/10 03:49:52;;;;;;;5.22;1.60;;;20.50;37.70;;;;;;5030543;28;20025;-55
2023/01/10 03:52:20;;;;;;;3.55;1.30;;;20.50;37.70;;;;;;5032150;28;21869;-52
2023/01/10 03:54:47;;;;;;;3.33;1.23;;;20.50;37.70;;;;;;5030423;28;20452;-53
2023/01/10 03:57:18;;;;;;;5.35;1.33;;;20.50;37.70;;;;;;5033385;28;20048;-54
2023/01/10 03:59:45;;;;;;;4.38;2.03;;;20.50;37.70;;;;;;5026426;28;20127;-54
2023/01/10 04:02:11;;;;;;;5.57;1.30;;;20.50;37.70;;;;;;5029305;28;20069;-53
2023/01/10 04:04:37;;;;;;;3.95;1.17;;;20.50;37.70;;;;;;5028805;28;20353;-55
2023/01/10 04:07:03;;;;;;;4.80;1.02;;;20.50;37.80;;;;;;5013307;28;20029;-58
2023/01/10 04:09:28;;;;;;;3.83;1.35;;;20.50;37.80;;;;;;5027939;28;20030;-53
2023/01/10 04:11:54;;;;;;;4.80;1.60;;;20.50;37.80;;;;;;5030018;28;20437;-55
2023/01/10 04:14:21;;;;;;;2.72;1.23;;;20.50;37.80;;;;;;5029434;28;20053;-54
2023/01/10 04:16:46;;;;;;;3.35;1.27;;;20.50;37.80;;;;;;5028075;28;20136;-57
2023/01/10 04:19:12;;;;;;;4.95;1.85;;;20.50;37.80;;;;;;5028974;28;20109;-53
2023/01/10 04:21:38;;;;;;;3.97;1.45;;;20.50;37.90;;;;;;5024848;28;20465;-56
2023/01/10 04:24:04;;;;;;;4.72;1.40;;;20.50;37.90;;;;;;5029382;28;20040;-54
2023/01/10 04:26:30;;;;;;;3.25;1.20;;;20.50;37.90;;;;;;5030780;28;20032;-55
2023/01/10 04:28:56;;;;;;;4.18;1.50;;;20.40;37.90;;;;;;5028625;28;20022;-50
2023/01/10 04:31:22;;;;;;;3.55;1.35;;;20.40;38.50;;;;;;5029988;28;20029;-53
2023/01/10 04:33:48;;;;;;;5.07;1.67;;;20.40;37.90;;;;;;5028419;28;20029;-55
2023/01/10 04:36:13;;;;;;;4.53;1.33;;;20.50;38.00;;;;;;5029896;28;20338;-54
2023/01/10 04:38:39;;;;;;;4.28;1.73;;;20.40;38.00;;;;;;5027805;28;20025;-53
2023/01/10 04:41:05;;;;;;;4.57;1.60;;;20.40;38.00;;;;;;5013696;28;20030;-53
2023/01/10 04:43:31;;;;;;;4.43;1.30;;;20.40;38.00;;;;;;5029679;28;20086;-57
2023/01/10 04:45:57;;;;;;;3.97;1.50;;;20.40;38.00;;;;;;5029920;28;20105;-53
2023/01/10 04:48:23;;;;;;;3.88;1.30;;;20.40;38.00;;;;;;5029469;28;20346;-56
2023/01/10 04:50:50;;;;;;;4.20;1.63;;;20.40;38.00;;;;;;5029301;28;20480;-56
2023/01/10 04:53:16;;;;;;;4.88;1.77;;;20.40;38.00;;;;;;5030211;28;20392;-50
2023/01/10 04:55:42;;;;;;;3.75;1.45;;;20.40;38.00;;;;;;5007038;28;20361;-53
2023/01/10 04:58:08;;;;;;;4.05;1.40;;;20.40;38.10;;;;;;5030173;28;20018;-55
2023/01/10 05:00:33;;;;;;;4.95;1.90;;;20.40;38.10;;;;;;5027660;28;20026;-55
2023/01/10 05:02:59;;;;;;;4.30;1.40;;;20.40;38.10;;;;;;5029787;28;20407;-57
2023/01/10 05:05:27;;;;;;;4.35;1.60;;;20.40;38.10;;;;;;5029654;28;20017;-51
2023/01/10 05:07:53;;;;;;;6.22;1.30;;;20.40;38.10;;;;;;5027611;28;21722;-55
2023/01/10 05:10:19;;;;;;;5.53;1.58;;;20.30;38.00;;;;;;5011785;28;20045;-54
2023/01/10 05:12:45;;;;;;;4.57;1.65;;;20.40;38.10;;;;;;5025342;28;20464;-55
2023/01/10 05:15:11;;;;;;;3.38;1.33;;;20.40;38.10;;;;;;5029073;28;20045;-53
2023/01/10 05:17:37;;;;;;;3.75;1.35;;;20.30;38.10;;;;;;5028442;28;20029;-56
2023/01/10 05:20:03;;;;;;;7.22;1.77;;;20.30;38.10;;;;;;5028830;28;20120;-52
2023/01/10 05:22:29;;;;;;;4.45;1.50;;;20.40;38.10;;;;;;5029974;28;20390;-55
2023/01/10 05:24:55;;;;;;;4.78;1.60;;;20.30;38.10;;;;;;5027770;28;20033;-55
2023/01/10 05:27:21;;;;;;;6.88;1.77;;;20.30;38.10;;;;;;5028500;28;20033;-55
2023/01/10 05:29:47;;;;;;;4.93;1.63;;;20.30;38.10;;;;;;5030486;28;20117;-55
2023/01/10 05:32:13;;;;;;;4.78;1.73;;;20.30;38.10;;;;;;5025818;28;20483;-56
2023/01/10 05:34:39;;;;;;;5.95;1.65;;;20.30;38.10;;;;;;5029939;28;20022;-55
2023/01/10 05:37:04;;;;;;;4.90;1.45;;;20.30;38.10;;;;;;5029925;28;20026;-54
2023/01/10 05:39:30;;;;;;;4.30;1.70;;;20.30;38.20;;;;;;5031186;28;20036;-53
2023/01/10 05:41:56;;;;;;;5.57;1.77;;;20.30;38.20;;;;;;5034283;28;20128;-56
2023/01/10 05:44:22;;;;;;;4.55;1.48;;;20.30;38.20;;;;;;5033468;28;20468;-54
2023/01/10 05:46:47;;;;;;;4.47;1.55;;;20.30;38.20;;;;;;5030695;28;20025;-52
2023/01/10 05:49:13;;;;;;;6.10;1.90;;;20.30;38.20;;;;;;5033312;28;20053;-56
2023/01/10 05:51:41;;;;;;;5.30;1.70;;;20.30;38.20;;;;;;5033604;28;20053;-55
2023/01/10 05:54:07;;;;;;;4.68;1.60;;;20.30;38.20;;;;;;5033734;28;20104;-53
2023/01/10 05:56:33;;;;;;;4.70;1.60;;;20.20;38.10;;;;;;5029066;28;20021;-55
2023/01/10 05:58:59;;;;;;;5.75;1.83;;;20.20;38.10;;;;;;5033724;28;20021;-56
2023/01/10 06:01:25;;;;;;;5.97;2.25;;;20.20;38.10;;;;;;5032896;28;20060;-55
2023/01/10 06:03:50;;;;;;;4.78;1.63;;;20.20;38.10;;;;;;5028576;28;20033;-52
2023/01/10 06:06:16;;;;;;;5.10;1.67;;;20.20;38.20;;;;;;5034559;28;20021;-55
2023/01/10 06:08:42;;;;;;;4.57;1.73;;;20.20;38.20;;;;;;5030042;28;20032;-55
2023/01/10 06:11:08;;;;;;;6.00;1.65;;;20.20;38.20;;;;;;5016386;28;20037;-55
2023/01/10 06:13:34;;;;;;;5.40;1.42;;;20.20;38.10;;;;;;5031593;28;20452;-56
2023/01/10 06:16:00;;;;;;;5.75;1.60;;;20.20;38.20;;;;;;5020939;28;20038;-56
2023/01/10 06:18:26;;;;;;;4.50;1.60;;;20.20;38.10;;;;;;5027120;28;20034;-56
2023/01/10 06:20:52;;;;;;;4.82;1.55;;;20.20;38.10;;;;;;5032900;28;20029;-56
2023/01/10 06:23:17;;;;;;;6.10;1.75;;;20.20;38.10;;;;;;5028815;28;20037;-55
2023/01/10 06:25:44;;;;;;;5.03;1.75;;;20.20;38.20;;;;;;5032614;28;20060;-53
2023/01/10 06:28:12;;;;;;;5.28;1.92;;;20.20;38.10;;;;;;5031654;28;20037;-57
2023/01/10 06:30:40;;;;;;;4.80;1.48;;;20.20;38.10;;;;;;5032961;28;20079;-54
2023/01/10 06:33:08;;;;;;;4.85;1.80;;;20.20;38.10;;;;;;5030519;28;20033;-55
2023/01/10 06:35:35;;;;;;;5.30;1.90;;;20.20;38.20;;;;;;5030843;28;20105;-56
2023/01/10 06:38:01;;;;;;;3.92;1.50;;;20.20;38.20;;;;;;5031295;28;20147;-54
2023/01/10 06:40:28;;;;;;;6.22;1.60;;;20.20;38.10;;;;;;5031688;28;20079;-54
2023/01/10 06:42:53;;;;;;;6.38;1.98;;;20.20;38.10;;;;;;5012533;28;20507;-55
2023/01/10 06:45:19;;;;;;;6.22;1.92;;;20.20;38.20;;;;;;5030859;28;20025;-51
2023/01/10 06:47:45;;;;;;;4.90;1.73;;;20.20;38.20;;;;;;5030249;28;20463;-49
2023/01/10 06:50:12;;;;;;;5.22;1.83;;;20.20;38.10;;;;;;5030737;28;22103;-57
2023/01/10 06:52:39;;;;;;;4.95;1.45;;;20.20;38.20;;;;;;5032121;28;20441;-56
2023/01/10 06:55:05;;;;;;;5.05;1.70;;;20.20;38.20;;;;;;5032512;28;20040;-53
2023/01/10 06:57:34;;;;;;;4.65;1.88;;;20.20;38.20;;;;;;5029021;28;20040;-56
2023/01/10 07:00:02;;;;;;;6.78;1.77;;;20.20;38.20;;;;;;5030667;28;20128;-53
2023/01/10 07:02:28;;;;;;;5.53;2.10;;;20.10;38.10;;;;;;5031919;28;20202;-55
2023/01/10 07:04:54;;;;;;;5.28;1.60;;;20.20;38.20;;;;;;5030436;28;20512;-54
2023/01/10 07:07:20;;;;;;;4.15;1.40;;;20.10;38.10;;;;;;5013670;28;20041;-59
2023/01/10 07:09:46;;;;;;;5.93;1.73;;;20.20;38.20;;;;;;5030994;28;20681;-56
2023/01/10 07:12:12;;;;;;;6.05;1.80;;;20.20;38.40;;;;;;5029567;28;20120;-56
2023/01/10 07:14:38;;;;;;;6.65;2.28;;;20.10;38.40;;;;;;5023199;28;20112;-57
2023/01/10 07:17:04;;;;;;;6.10;2.00;;;20.10;38.30;;;;;;5012673;28;20132;-57
2023/01/10 07:19:30;;;;;;;7.30;1.88;;;20.10;38.30;;;;;;5029711;28;20029;-55
2023/01/10 07:21:56;;;;;;;6.55;1.83;;;20.10;38.20;;;;;;5032151;28;20033;-57
2023/01/10 07:24:21;;;;;;;6.07;1.98;;;20.10;38.20;;;;;;5031129;28;20041;-56
2023/01/10 07:26:47;;;;;;;5.85;1.50;;;20.10;38.20;;;;;;5031273;28;20025;-57
2023/01/10 07:29:13;;;;;;;4.78;1.63;;;20.10;38.30;;;;;;5027703;28;20091;-55
2023/01/10 07:31:39;;;;;;;4.22;1.48;;;20.10;38.30;;;;;;5021978;28;20041;-53
2023/01/10 07:34:05;;;;;;;4.68;1.77;;;20.10;38.30;;;;;;5024972;28;20119;-55
2023/01/10 07:36:31;;;;;;;6.47;2.17;;;20.10;38.20;;;;;;5025790;28;20326;-54
2023/01/10 07:38:56;;;;;;;5.40;2.20;;;20.10;38.20;;;;;;5020077;28;20033;-54
2023/01/10 07:41:22;;;;;;;6.20;1.85;;;20.10;38.20;;;;;;5022458;28;20021;-53
2023/01/10 07:43:48;;;;;;;5.57;2.33;;;20.10;38.20;;;;;;5024148;28;20534;-55
2023/01/10 07:46:14;;;;;;;5.85;1.80;;;20.10;38.30;;;;;;5023117;28;20022;-56
2023/01/10 07:48:45;;;;;;;6.47;2.05;;;20.00;38.20;;;;;;5024863;28;20026;-52
2023/01/10 07:51:10;;;;;;;7.32;2.08;;;20.10;38.30;;;;;;5025272;28;20022;-56
2023/01/10 07:53:37;;;;;;;9.60;2.03;;;20.00;38.20;;;;;;5021084;28;20032;-57
2023/01/10 07:56:04;;;;;;;5.78;2.20;;;20.00;38.20;;;;;;5023807;28;20032;-55
2023/01/10 07:58:30;;;;;;;6.97;2.05;;;20.10;38.30;;;;;;5023019;28;20052;-57
2023/01/10 08:00:57;;;;;;;6.45;1.80;;;20.10;38.40;;;;;;5022211;28;20072;-56
2023/01/10 08:03:23;;;;;;;5.68;1.70;;;20.10;38.50;;;;;;5002339;28;20038;-57
2023/01/10 08:05:49;;;;;;;5.38;1.70;;;20.10;38.60;;;;;;5024359;28;20037;-56
2023/01/10 08:08:16;;;;;;;5.28;1.90;;;20.10;38.80;;;;;;5020045;28;20029;-58
2023/01/10 08:10:42;;;;;;;5.13;1.30;;;20.20;38.90;;;;;;5022177;28;20412;-54
2023/01/10 08:13:08;;;;;;;6.97;1.73;;;20.20;38.90;;;;;;5020010;28;20061;-54
2023/01/10 08:15:33;;;;;;;6.45;2.40;;;20.20;39.70;;;;;;5009598;28;20053;-55
2023/01/10 08:18:00;;;;;;;5.35;1.23;;;20.30;39.20;;;;;;5024775;28;20452;-57
2023/01/10 08:20:27;;;;;;;5.50;2.00;;;20.40;39.40;;;;;;5031194;28;20033;-52
2023/01/10 08:22:55;;;;;;;7.18;1.73;;;20.40;39.30;;;;;;5033339;28;20052;-56
2023/01/10 08:25:21;;;;;;;3.90;1.48;;;20.50;39.40;;;;;;5032093;28;20090;-56
2023/01/10 08:27:49;;;;;;;5.68;1.90;;;20.50;39.40;;;;;;5030912;28;20029;-57
2023/01/10 08:30:16;;;;;;;4.82;1.67;;;20.60;39.40;;;;;;5033101;28;20048;-55
2023/01/10 08:32:42;;;;;;;4.55;1.52;;;20.60;39.40;;;;;;5025386;28;20033;-56
2023/01/10 08:35:08;;;;;;;4.78;1.58;;;20.70;39.40;;;;;;5019990;28;20445;-55
2023/01/10 08:37:34;;;;;;;5.72;1.85;;;20.70;39.30;;;;;;5026093;28;20052;-55
2023/01/10 08:40:01;;;;;;;5.97;1.67;;;20.80;39.20;;;;;;5003612;28;20037;-55
2023/01/10 08:42:27;;;;;;;7.75;1.60;;;20.90;39.20;;;;;;5022795;28;20084;-52
2023/01/10 08:44:53;;;;;;;5.80;2.15;;;20.90;39.00;;;;;;5027053;28;20076;-55
2023/01/10 08:47:19;;;;;;;4.65;1.80;;;21.00;38.90;;;;;;5020908;28;20021;-53
2023/01/10 08:49:48;;;;;;;8.82;2.17;;;21.10;38.90;;;;;;5018754;28;21395;-55
2023/01/10 08:52:15;;;;;;;5.55;1.70;;;21.10;38.80;;;;;;5027598;28;20356;-53
2023/01/10 08:54:41;;;;;;;5.80;1.77;;;21.20;38.60;;;;;;5034168;28;20021;-52
2023/01/10 08:57:07;;;;;;;6.32;1.98;;;21.20;38.50;;;;;;5034924;28;20040;-54
2023/01/10 08:59:33;;;;;;;6.35;1.92;;;21.30;38.40;;;;;;5034242;28;20029;-55
2023/01/10 09:01:59;;;;;;;6.63;2.28;;;21.40;38.20;;;;;;5037608;28;20044;-56
2023/01/10 09:04:27;;;;;;;4.45;1.50;;;21.40;38.70;;;;;;5019260;28;20033;-55
2023/01/10 09:06:54;;;;;;;5.45;2.20;;;21.50;38.00;;;;;;5015302;28;20033;-55
2023/01/10 09:09:20;;;;;;;8.40;1.60;;;21.60;37.90;;;;;;5028898;28;20025;-56
2023/01/10 09:11:45;;;;;;;5.00;1.70;;;21.60;37.80;;;;;;5027777;28;20035;-52
2023/01/10 09:14:11;;;;;;;7.28;1.80;;;21.60;37.70;;;;;;5021386;28;20040;-59
2023/01/10 09:16:37;;;;;;;6.47;1.77;;;21.70;37.70;;;;;;5037837;28;20038;-59
2023/01/10 09:19:05;;;;;;;5.45;1.80;;;21.80;37.50;;;;;;5037740;28;20334;-59
2023/01/10 09:21:31;;;;;;;5.88;1.90;;;21.80;37.40;;;;;;5038519;28;20038;-56
2023/01/10 09:23:56;;;;;;;8.50;2.58;;;21.90;37.30;;;;;;5038579;28;20100;-49
2023/01/10 09:26:22;;;;;;;5.57;1.77;;;21.90;37.20;;;;;;5034960;28;20075;-51
2023/01/10 09:28:48;;;;;;;8.00;1.80;;;22.00;37.10;;;;;;5030420;28;20033;-54
2023/01/10 09:31:14;;;;;;;6.30;2.35;;;22.00;37.00;;;;;;5036713;28;20100;-52
2023/01/10 09:33:41;;;;;;;6.25;1.63;;;22.10;36.90;;;;;;5035838;28;20041;-54
2023/01/10 09:36:08;;;;;;;6.32;1.85;;;22.10;36.80;;;;;;5036697;28;20403;-56
2023/01/10 09:38:34;;;;;;;4.95;1.95;;;22.10;36.70;;;;;;5036491;28;20369;-54
2023/01/10 09:41:33;;;;;;;6.13;2.20;;;22.20;36.60;;;;;;5035900;28;20113;-57
2023/01/10 09:44:23;;;;;;;4.47;1.73;;;22.30;36.50;;;;;;5036181;28;20123;-56
2023/01/10 09:47:13;;;;;;;6.30;2.22;;;22.30;36.40;;;;;;5033274;28;20427;-54
2023/01/10 09:49:58;;;;;;;5.82;2.08;;;22.30;36.30;;;;;;5036038;28;20033;-57
2023/01/10 09:52:32;;;;;;;4.90;1.85;;;22.30;36.20;;;;;;5036087;28;20464;-56
2023/01/10 09:55:05;;;;;;;5.90;2.10;;;22.40;36.10;;;;;;5035337;28;20021;-56
2023/01/10 09:57:31;;;;;;;6.95;1.92;;;22.40;36.10;;;;;;5036356;28;20030;-57
2023/01/10 10:00:00;;;;;;;8.02;2.13;;;22.40;36.00;;;;;;5036573;28;20030;-54
2023/01/10 10:02:34;;;;;;;6.65;2.30;;;22.40;35.90;;;;;;5034908;28;20037;-54
2023/01/10 10:05:19;;;;;;;4.60;1.58;;;22.50;35.90;;;;;;5034493;28;20052;-54
2023/01/10 10:07:52;;;;;;;4.57;1.40;;;22.50;35.80;;;;;;5034485;28;20026;-50
2023/01/10 10:10:31;;;;;;;5.90;2.28;;;22.50;35.80;;;;;;5036130;28;20068;-56
2023/01/10 10:13:05;;;;;;;5.07;1.88;;;22.50;35.70;;;;;;5035792;28;20038;-55
2023/01/10 10:15:51;;;;;;;6.57;1.98;;;22.50;35.60;;;;;;5035765;28;20068;-58
2023/01/10 10:18:54;;;;;;;5.88;2.20;;;22.50;35.60;;;;;;5036675;28;20045;-53
2023/01/10 10:21:41;;;;;;;6.45;2.22;;;22.60;35.60;;;;;;5035554;28;20111;-53
2023/01/10 10:24:48;;;;;;;7.40;2.75;;;22.60;35.50;;;;;;5033779;28;20037;-54
2023/01/10 10:27:35;;;;;;;8.07;2.63;;;22.60;35.50;;;;;;4991585;28;20163;-57
2023/01/10 10:30:25;;;;;;;5.97;1.90;;;22.60;35.40;;;;;;5034705;28;20033;-54
2023/01/10 10:33:09;;;;;;;5.43;1.75;;;22.60;35.40;;;;;;5032300;28;20098;-52
2023/01/10 10:35:37;;;;;;;5.75;1.73;;;22.60;35.40;;;;;;5033781;28;20104;-54
2023/01/10 10:38:13;;;;;;;5.95;1.83;;;22.50;35.30;;;;;;5035279;28;20445;-58
2023/01/10 10:40:43;;;;;;;5.82;2.15;;;22.60;35.20;;;;;;5033486;28;20353;-55
2023/01/10 10:43:24;;;;;;;4.40;1.60;;;22.50;35.10;;;;;;5035328;28;20090;-51
2023/01/10 10:45:56;;;;;;;5.00;1.90;;;22.60;35.10;;;;;;5033416;28;20033;-56
2023/01/10 10:48:29;;;;;;;5.07;1.95;;;22.60;35.10;;;;;;5035040;28;20455;-56
2023/01/10 10:51:03;;;;;;;5.30;2.00;;;22.60;35.10;;;;;;5035243;28;20445;-53
2023/01/10 10:53:31;;;;;;;7.47;2.28;;;22.60;35.00;;;;;;5015885;28;20022;-53
2023/01/10 10:55:58;;;;;;;6.65;2.33;;;22.60;35.00;;;;;;5035105;28;20049;-55
2023/01/10 10:58:24;;;;;;;5.15;1.80;;;22.60;34.90;;;;;;5035468;28;20029;-52
2023/01/10 11:00:51;;;;;;;5.15;2.25;;;22.60;34.90;;;;;;5034821;28;20029;-56
2023/01/10 11:04:00;;;;;;;5.38;2.13;;;22.60;34.90;;;;;;5030786;28;20029;-57
2023/01/10 11:06:29;;;;;;;6.15;1.70;;;22.60;34.80;;;;;;4980581;28;20038;-55
2023/01/10 11:08:59;;;;;;;5.38;1.77;;;22.60;34.90;;;;;;5025016;28;20073;-55
2023/01/10 11:11:43;;;;;;;6.00;2.00;;;22.50;34.90;;;;;;5034521;28;20033;-55
2023/01/10 11:14:09;;;;;;;6.78;1.67;;;22.50;35.20;;;;;;5031673;28;20384;-56
2023/01/10 11:16:38;;;;;;;7.60;2.45;;;22.50;35.00;;;;;;5031924;28;20042;-57
2023/01/10 11:19:23;;;;;;;7.38;2.50;;;22.50;35.20;;;;;;5032129;28;20048;-52
2023/01/10 11:22:01;;;;;;;6.55;1.95;;;22.60;35.30;;;;;;5033674;28;20033;-54
2023/01/10 11:24:55;;;;;;;3.90;1.58;;;22.50;35.20;;;;;;5028436;28;20348;-58
2023/01/10 11:27:44;;;;;;;7.10;2.08;;;22.50;35.30;;;;;;5009026;28;20056;-61
2023/01/10 11:30:18;;;;;;;4.35;1.80;;;22.50;35.60;;;;;;5014530;28;20037;-53
2023/01/10 11:32:56;;;;;;;6.07;2.15;;;22.50;35.80;;;;;;5034627;28;20037;-58
2023/01/10 11:35:22;;;;;;;5.35;1.70;;;22.60;35.90;;;;;;5031665;28;20068;-58
2023/01/10 11:38:01;;;;;;;4.90;2.03;;;22.60;35.80;;;;;;5031447;28;20063;-55
2023/01/10 11:40:29;;;;;;;7.68;2.00;;;22.70;35.60;;;;;;5031441;28;20041;-56
2023/01/10 11:42:57;;;;;;;4.78;1.77;;;22.80;35.70;;;;;;5029145;28;20041;-60
2023/01/10 11:45:27;;;;;;;6.45;2.33;;;22.90;35.70;;;;;;5014248;28;20042;-59
2023/01/10 11:48:07;;;;;;;4.45;1.52;;;23.00;35.60;;;;;;5027876;28;20404;-57
2023/01/10 11:50:41;;;;;;;8.15;1.90;;;23.00;35.40;;;;;;5024929;28;20025;-57
2023/01/10 11:53:31;;;;;;;5.03;1.98;;;23.10;35.20;;;;;;5027798;28;20037;-55
2023/01/10 11:55:57;;;;;;;8.60;2.10;;;23.20;34.90;;;;;;5031778;28;20036;-58
2023/01/10 11:58:29;;;;;;;10.82;2.50;;;23.30;34.80;;;;;;5034156;28;20076;-60
2023/01/10 12:00:56;;;;;;;6.18;2.20;;;23.40;34.70;;;;;;5033703;28;20022;-62
2023/01/10 12:03:31;;;;;;;10.55;2.53;;;23.40;34.50;;;;;;5029956;28;20056;-58
2023/01/10 12:06:08;;;;;;;8.88;2.08;;;23.50;34.40;;;;;;5031849;28;20175;-52
2023/01/10 12:08:36;;;;;;;7.03;2.15;;;23.60;34.30;;;;;;5028413;28;20361;-60
2023/01/10 12:11:16;;;;;;;8.77;2.33;;;23.70;34.30;;;;;;5033580;28;20026;-60
2023/01/10 12:13:48;;;;;;;6.05;2.25;;;23.70;34.20;;;;;;5033482;28;20069;-56
2023/01/10 12:16:33;;;;;;;8.95;2.15;;;23.80;34.10;;;;;;5031475;28;20034;-54
2023/01/10 12:19:11;;;;;;;4.82;1.95;;;23.80;34.00;;;;;;5024990;28;20022;-55
2023/01/10 12:21:43;;;;;;;4.88;1.85;;;23.90;33.90;;;;;;5016096;28;20465;-56
2023/01/10 12:24:42;;;;;;;6.50;2.00;;;23.90;33.70;;;;;;5029596;28;20112;-60
2023/01/10 12:27:12;;;;;;;4.88;1.88;;;24.00;33.70;;;;;;5032007;28;20076;-59
2023/01/10 12:29:44;;;;;;;6.53;1.98;;;24.00;33.60;;;;;;5029264;28;20033;-58
2023/01/10 12:32:23;;;;;;;6.18;1.95;;;24.10;33.50;;;;;;5032933;28;20033;-60
2023/01/10 12:34:59;;;;;;;10.75;2.25;;;24.10;33.30;;;;;;5012713;28;20385;-59
2023/01/10 12:37:44;;;;;;;8.27;2.47;;;24.10;33.20;;;;;;5030048;28;20368;-58
2023/01/10 12:40:13;;;;;;;7.97;2.60;;;24.20;33.10;;;;;;5030601;28;20029;-60
2023/01/10 12:45:51;;;;;;;9.32;2.20;;;24.30;33.10;;;;;;5027783;28;20338;-55
2023/01/10 12:48:29;;;;;;;7.07;2.60;;;24.30;33.00;;;;;;5028976;28;20052;-61
2023/01/10 12:51:03;;;;;;;5.82;2.47;;;24.30;33.00;;;;;;5025066;28;20037;-57
2023/01/10 12:53:57;;;;;;;7.57;2.65;;;24.40;33.10;;;;;;5027865;28;20121;-55
2023/01/10 12:56:23;;;;;;;7.68;2.63;;;24.40;33.80;;;;;;5027032;28;20485;-59
2023/01/10 12:58:57;;;;;;;7.15;2.80;;;24.50;33.20;;;;;;5027736;28;20029;-58
2023/01/10 13:01:28;;;;;;;7.75;2.78;;;24.50;33.10;;;;;;5024932;28;20079;-54
2023/01/10 13:04:04;;;;;;;10.05;2.60;;;24.60;33.20;;;;;;5028911;28;20033;-55
2023/01/10 13:06:36;;;;;;;6.85;2.40;;;24.60;33.10;;;;;;4991238;28;20156;-58
2023/01/10 13:09:08;;;;;;;8.75;2.38;;;24.70;33.10;;;;;;5029449;28;20051;-57
2023/01/10 13:11:44;;;;;;;6.85;2.13;;;24.70;32.90;;;;;;5024792;28;20484;-58
2023/01/10 13:14:15;;;;;;;5.75;2.40;;;24.70;32.90;;;;;;5009238;28;20029;-56